Have a Safe July 4th! 

Flight Track Log - Related Links

Times and Time Zones

All times are in EDT time to prevent confusion due to time zone crossing. See the UAL3272 flight status page for this flight to view local times or setup timezone preferences in your user account.

Time Position Orientation Groundspeed Altitude Reporting Facility
EDT Latitude Longitude Course Direction KTS MPH feet Rate Location/Type
Wed 06:33:25 AM 43.6833 -79.5333 186° South 160 184 2,700  Level Toronto Center
Wed 06:34:25 AM 43.7333 -79.5000 26° Northeast 200 230 5,400 2,250 Climbing Toronto Center
Wed 06:35:25 AM 43.6833 -79.4000 125° Southeast 270 311 7,200 2,100 Climbing Toronto Center
Wed 06:36:25 AM 43.6167 -79.3500 151° Southeast 280 322 9,600 2,300 Climbing Toronto Center
Wed 06:37:25 AM 43.5667 -79.4333 230° Southwest 270 311 11,800 1,850 Climbing Toronto Center
Wed 06:38:25 AM 43.5000 -79.5000 216° Southwest 300 345 13,300 1,500 Climbing Toronto Center
Wed 06:39:00 AM 43.0799 -79.7362 186° South  Level FlightAware Approximate
Wed 06:39:25 AM 43.4333 -79.5667 216° Southwest 330 380 14,800  Level Toronto Center
Wed 06:40:25 AM 43.3500 -79.6333 210° Southwest 330 380 16,900 1,650 Climbing Toronto Center
Wed 06:41:25 AM 43.2667 -79.7000 210° Southwest 340 391 18,100 950 Climbing Toronto Center
Wed 06:42:25 AM 43.1667 -79.7500 200° South 370 426 18,800 1,000 Climbing Toronto Center
Wed 06:43:25 AM 43.0667 -79.8000 200° South 380 437 20,100 1,300 Climbing Toronto Center
Wed 06:44:25 AM 42.9667 -79.8333 194° South 390 449 21,400 950 Climbing Toronto Center
Wed 06:45:25 AM 42.8500 -79.8833 197° South 400 460 22,000 300 Climbing Toronto Center
Wed 06:46:25 AM 42.7500 -79.9333 200° South 420 483 22,000  Level Toronto Center
Wed 06:47:25 AM 42.6333 -80.0000 203° Southwest 430 495 22,000  Level Toronto Center
Wed 06:48:25 AM 42.5333 -80.0333 194° South 390 449 22,000  Level Toronto Center
Wed 06:49:25 AM 42.4333 -80.0833 200° South 370 426 22,000  Level Toronto Center
Wed 06:50:25 AM 42.3333 -80.1333 200° South 360 414 22,000  Level Toronto Center
Wed 06:51:25 AM 42.2500 -80.1667 196° South 360 414 22,000  Level Toronto Center
Wed 06:52:25 AM 42.1500 -80.2167 200° South 360 414 22,000  Level Toronto Center
Wed 06:53:25 AM 42.0500 -80.2667 200° South 360 414 22,000  Level Toronto Center
Wed 06:54:25 AM 41.9833 -80.3333 217° Southwest 350 403 22,000  Level Toronto Center
Wed 06:55:38 AM 41.8975 -80.4631 228° Southwest 358 412 22,000 -451 Level Cleveland Center
Wed 06:56:38 AM 41.8328 -80.5525 226° Southwest 353 406 21,000 -1,350 Descending Cleveland Center
Wed 06:57:38 AM 41.7806 -80.6278 227° Southwest 333 383 19,300 -1,650 Descending Cleveland Center
Wed 06:58:38 AM 41.7222 -80.7083 226° Southwest 314 361 17,700 -1,800 Descending Cleveland Center
Wed 06:59:38 AM 41.6617 -80.7917 226° Southwest 309 356 15,700 -1,900 Descending Cleveland Center
Wed 07:00:38 AM 41.6053 -80.8719 227° Southwest 304 350 13,900 -1,882 Descending Cleveland Center
Wed 07:01:20 AM 41.5675 -80.9328 230° Southwest 274 315 12,500 -1,600 Descending Cleveland Center
Wed 07:01:38 AM 41.5611 -80.9522 246° West 290 334 12,300 -1,444 Descending Cleveland Center
Wed 07:02:14 AM 41.5464 -81.0214 254° West 260 299 11,200 -1,600 Descending Cleveland Center
Wed 07:02:38 AM 41.5422 -81.0464 257° West 270 311 10,700 -1,082 Descending Cleveland Center
Wed 07:03:15 AM 41.5294 -81.1131 256° West 259 298 10,100 -700 Descending Cleveland Center
Wed 07:03:38 AM 41.5186 -81.1461 246° West 264 304 10,000  Descending Cleveland Center
Wed 07:04:27 AM 41.5058 -81.2264 258° West 257 296 10,100  Climbing Cleveland Center
Wed 07:05:22 AM 41.4969 -81.3122 262° West 273 314 10,000 -85 Descending Cleveland Center
Wed 07:05:38 AM 41.4925 -81.3372 257° West 264 304 10,000 -122 Level Cleveland Center
Wed 07:06:11 AM 41.4839 -81.3925 258° West 267 307 9,900 -600 Descending Cleveland Center
Wed 07:06:38 AM 41.4794 -81.4311 261° West 269 310 9,400 -1,222 Descending Cleveland Center
Wed 07:07:05 AM 41.4728 -81.4756 259° West 247 284 8,800 -1,200 Descending Cleveland Center
Wed 07:07:38 AM 41.4683 -81.5225 263° West 263 303 8,200 -1,233 Descending Cleveland Center
Wed 07:08:18 AM 41.4594 -81.5806 258° West 254 292 7,300 -1,100 Descending Cleveland Center
Wed 07:08:38 AM 41.4550 -81.6164 261° West 257 296 7,100 -197 Descending Cleveland Center
Wed 07:09:19 AM 41.4397 -81.6772 251° West 263 303 7,100 -100 Level Cleveland Center
Wed 07:09:38 AM 41.4272 -81.6992 233° Southwest 257 296 7,000 -100 Descending Cleveland Center
Wed 07:10:19 AM 41.3911 -81.7567 230° Southwest 268 308 7,000  Level Cleveland Center
Wed 07:10:38 AM 41.3783 -81.7758 228° Southwest 264 304 7,000 -885 Level Cleveland Center
Wed 07:11:20 AM 41.3403 -81.8275 226° Southwest 256 295 6,100 -1,541 Descending Cleveland Center
Wed 07:12:27 AM 41.2978 -81.9042 234° Southwest 243 280 4,200 -1,513 Descending Cleveland Center
Wed 07:13:15 AM 41.3033 -81.9650 277° West 249 287 3,200 -757 Descending Cleveland Center
Wed 07:14:10 AM 41.3450 -81.9606 North 156 180 2,900 -694 Descending Cleveland Center
Wed 07:15:16 AM 41.3683 -81.9222 51° Northeast 110 127 1,800 -850 Descending Cleveland Center
Wed 07:16:17 AM 41.3917 -81.8894 46° Northeast 119 137 1,100 -689 Descending Cleveland Center

Login

Don't have an account? Register now (free) for customized features, flight alerts, and more!